createdAt,value
2022-08-11T00:01:17.145Z,8.57
2022-08-11T00:03:50.072Z,8.77
2022-08-11T00:06:27.525Z,8.67
2022-08-11T00:08:57.161Z,9.00
2022-08-11T00:11:36.266Z,9.03
2022-08-11T00:14:15.827Z,8.63
2022-08-11T00:16:46.448Z,8.97
2022-08-11T00:20:13.846Z,8.60
2022-08-11T00:22:12.198Z,8.73
2022-08-11T00:24:53.447Z,9.03
2022-08-11T00:27:34.614Z,8.90
2022-08-11T00:30:06.129Z,8.87
2022-08-11T00:32:35.826Z,8.60
2022-08-11T00:35:54.433Z,8.80
2022-08-11T00:37:58.739Z,9.17
2022-08-11T00:40:38.850Z,8.80
2022-08-11T00:43:39.646Z,9.10
2022-08-11T00:46:18.711Z,8.73
2022-08-11T00:49:03.975Z,9.20
2022-08-11T00:52:05.785Z,8.87
2022-08-11T00:55:31.173Z,8.87
2022-08-11T00:58:51.269Z,9.00
2022-08-11T01:01:36.430Z,8.93
2022-08-11T01:04:41.048Z,8.93
2022-08-11T01:08:12.745Z,8.87
2022-08-11T01:11:02.953Z,8.90
2022-08-11T01:14:16.861Z,8.73
2022-08-11T01:17:42.970Z,9.40
2022-08-11T01:20:49.136Z,8.80
2022-08-11T01:23:56.548Z,8.70
2022-08-11T01:27:28.561Z,8.80
2022-08-11T01:30:45.150Z,8.80
2022-08-11T01:34:15.030Z,8.80
2022-08-11T01:37:27.563Z,8.90
2022-08-11T01:40:45.027Z,9.23
2022-08-11T01:44:05.620Z,9.00
2022-08-11T01:46:47.024Z,8.80
2022-08-11T01:50:05.917Z,9.00
2022-08-11T01:52:30.961Z,8.67
2022-08-11T01:55:15.394Z,8.73
2022-08-11T01:57:58.048Z,8.90
2022-08-11T02:00:30.836Z,8.73
2022-08-11T02:03:08.994Z,8.90
2022-08-11T02:06:01.603Z,8.80
2022-08-11T02:08:50.837Z,8.80
2022-08-11T02:11:35.185Z,9.10
2022-08-11T02:14:22.706Z,8.80
2022-08-11T02:17:15.407Z,8.97
2022-08-11T02:20:13.915Z,8.90
2022-08-11T02:24:05.621Z,9.27
2022-08-11T02:26:23.739Z,9.00
2022-08-11T02:29:05.038Z,9.05
2022-08-11T02:32:28.697Z,9.00
2022-08-11T02:35:05.984Z,9.07
2022-08-11T02:37:54.342Z,9.00
2022-08-11T02:40:32.449Z,8.90
2022-08-11T02:43:18.175Z,9.10
2022-08-11T02:46:08.052Z,9.20
2022-08-11T02:49:24.169Z,9.07
2022-08-11T02:52:06.549Z,8.90
2022-08-11T02:54:58.785Z,8.93
2022-08-11T02:57:35.197Z,8.90
2022-08-11T03:00:10.980Z,8.80
2022-08-11T03:03:07.749Z,9.20
2022-08-11T03:05:58.621Z,8.83
2022-08-11T03:08:52.577Z,9.33
2022-08-11T03:12:04.753Z,8.90
2022-08-11T03:15:01.965Z,9.00
2022-08-11T03:17:38.864Z,8.93
2022-08-11T03:20:39.326Z,8.90
2022-08-11T03:23:20.166Z,9.20
2022-08-11T03:25:56.840Z,9.20
2022-08-11T03:28:33.528Z,8.90
2022-08-11T03:31:24.833Z,9.10
2022-08-11T03:34:07.277Z,9.30
2022-08-11T03:37:17.259Z,9.17
2022-08-11T03:40:00.928Z,9.00
2022-08-11T03:42:43.121Z,9.33
2022-08-11T03:45:25.006Z,9.10
2022-08-11T03:48:13.985Z,9.10
2022-08-11T03:51:08.149Z,9.37
2022-08-11T03:54:05.437Z,9.00
2022-08-11T03:57:36.005Z,9.20
2022-08-11T04:00:56.482Z,9.07
2022-08-11T04:03:51.791Z,9.20
2022-08-11T04:07:23.520Z,9.47
2022-08-11T04:10:33.900Z,9.23
2022-08-11T04:14:25.203Z,9.00
2022-08-11T04:17:22.834Z,9.03
2022-08-11T04:20:44.948Z,9.43
2022-08-11T04:24:36.170Z,8.70
2022-08-11T04:27:04.924Z,9.07
2022-08-11T04:30:03.619Z,9.27
2022-08-11T04:33:36.527Z,9.33
2022-08-11T04:36:48.152Z,9.13
2022-08-11T04:39:43.849Z,9.20
2022-08-11T04:43:24.366Z,9.53
2022-08-11T04:46:31.505Z,9.13
2022-08-11T04:49:51.098Z,9.20
2022-08-11T04:53:01.286Z,8.93
2022-08-11T04:56:30.823Z,9.03
2022-08-11T05:00:16.937Z,9.00
2022-08-11T05:03:44.634Z,8.90
2022-08-11T05:06:49.277Z,9.10
2022-08-11T05:09:54.675Z,9.17
2022-08-11T05:12:37.826Z,8.90
2022-08-11T05:15:30.969Z,9.10
2022-08-11T05:18:35.652Z,9.20
2022-08-11T05:21:27.634Z,9.10
2022-08-11T05:24:22.628Z,8.90
2022-08-11T05:27:13.658Z,9.10
2022-08-11T05:30:05.317Z,8.97
2022-08-11T05:33:01.499Z,8.90
2022-08-11T05:36:01.649Z,9.10
2022-08-11T05:38:49.813Z,9.23
2022-08-11T05:41:39.374Z,9.07
2022-08-11T05:44:25.876Z,9.30
2022-08-11T05:47:13.528Z,9.07
2022-08-11T05:50:00.208Z,9.13
2022-08-11T05:52:55.422Z,8.83
2022-08-11T05:55:52.532Z,8.70
2022-08-11T05:58:42.447Z,9.00
2022-08-11T06:01:14.388Z,8.73
2022-08-11T06:04:04.573Z,8.90
2022-08-11T06:06:33.494Z,9.20
2022-08-11T06:09:02.771Z,9.00
2022-08-11T06:11:44.308Z,8.87
2022-08-11T06:14:15.604Z,9.10
2022-08-11T06:16:48.758Z,9.00
2022-08-11T06:19:23.121Z,8.80
2022-08-11T06:21:53.268Z,9.23
2022-08-11T06:24:21.871Z,9.20
2022-08-11T06:29:54.426Z,8.97
2022-08-11T06:32:27.407Z,8.60
2022-08-11T06:35:21.045Z,9.13
2022-08-11T06:38:06.375Z,8.87
2022-08-11T06:41:05.012Z,8.97
2022-08-11T06:43:55.291Z,9.10
2022-08-11T06:46:30.150Z,8.87
2022-08-11T06:48:59.517Z,9.10
2022-08-11T06:51:32.680Z,8.87
2022-08-11T06:54:05.704Z,9.00
2022-08-11T07:00:02.453Z,8.70
2022-08-11T07:02:35.189Z,8.63
2022-08-11T07:05:08.853Z,8.77
2022-08-11T07:08:47.680Z,8.50
2022-08-11T07:12:27.385Z,8.67
2022-08-11T07:15:15.566Z,8.70
2022-08-11T07:18:10.113Z,8.60
2022-08-11T07:21:02.101Z,8.70
2022-08-11T07:23:53.425Z,8.63
2022-08-11T07:26:43.159Z,8.50
2022-08-11T07:29:14.309Z,8.43
2022-08-11T07:31:50.167Z,8.70
2022-08-11T07:34:24.558Z,8.80
2022-08-11T07:36:56.132Z,8.67
2022-08-11T07:39:29.016Z,8.50
2022-08-11T07:42:01.356Z,8.67
2022-08-11T07:44:35.076Z,8.50
2022-08-11T07:47:21.896Z,8.47
2022-08-11T07:50:09.241Z,8.50
2022-08-11T07:52:40.608Z,8.63
2022-08-11T07:55:18.392Z,8.40
2022-08-11T07:58:16.970Z,8.50
2022-08-11T08:01:16.029Z,8.57
2022-08-11T08:04:09.469Z,8.70
2022-08-11T08:06:56.641Z,8.43
2022-08-11T08:09:44.068Z,8.60
2022-08-11T08:12:31.957Z,8.30
2022-08-11T08:15:19.527Z,8.40
2022-08-11T08:18:09.630Z,8.33
2022-08-11T08:20:50.650Z,8.40
2022-08-11T08:23:33.266Z,8.20
2022-08-11T08:26:04.594Z,8.50
2022-08-11T08:28:35.498Z,8.27
2022-08-11T08:31:04.537Z,8.20
2022-08-11T08:33:33.806Z,8.47
2022-08-11T08:36:12.992Z,8.50
2022-08-11T08:38:44.177Z,8.57
2022-08-11T08:41:16.285Z,8.30
2022-08-11T08:43:53.034Z,8.40
2022-08-11T08:46:27.042Z,8.57
2022-08-11T08:48:56.453Z,8.60
2022-08-11T08:51:58.627Z,8.10
2022-08-11T08:54:35.576Z,8.50
2022-08-11T08:57:05.998Z,8.60
2022-08-11T08:59:48.481Z,8.20
2022-08-11T09:02:33.570Z,8.30
2022-08-11T09:05:05.257Z,8.40
2022-08-11T09:07:39.968Z,8.40
2022-08-11T09:10:11.518Z,8.10
2022-08-11T09:12:42.606Z,8.20
2022-08-11T09:15:15.133Z,8.50
2022-08-11T09:17:50.636Z,8.50
2022-08-11T09:20:22.912Z,8.37
2022-08-11T09:26:19.721Z,7.90
2022-08-11T09:28:50.132Z,8.10
2022-08-11T09:31:22.802Z,8.17
2022-08-11T09:33:55.662Z,8.20
2022-08-11T09:36:42.138Z,8.30
2022-08-11T09:39:31.178Z,8.30
2022-08-11T09:42:03.348Z,8.20
2022-08-11T09:44:50.695Z,8.00
2022-08-11T09:47:25.173Z,8.20
2022-08-11T09:50:00.345Z,8.00
2022-08-11T09:52:32.441Z,7.97
2022-08-11T09:55:02.312Z,8.30
2022-08-11T09:57:48.801Z,8.37
2022-08-11T10:00:18.157Z,8.20
2022-08-11T10:02:50.025Z,8.10
2022-08-11T10:05:38.733Z,8.40
2022-08-11T10:08:08.990Z,8.00
2022-08-11T10:10:39.488Z,8.27
2022-08-11T10:14:30.126Z,8.10
2022-08-11T10:16:15.394Z,8.40
2022-08-11T10:18:52.836Z,8.10
2022-08-11T10:21:29.530Z,8.13
2022-08-11T10:24:33.545Z,8.40
2022-08-11T10:27:03.469Z,8.30
2022-08-11T10:29:54.896Z,8.70
2022-08-11T10:32:58.816Z,8.30
2022-08-11T10:35:32.075Z,8.00
2022-08-11T10:38:06.583Z,8.40
2022-08-11T10:40:40.388Z,8.10
2022-08-11T10:43:13.784Z,8.10
2022-08-11T10:46:04.939Z,7.90
2022-08-11T10:48:38.869Z,8.10
2022-08-11T10:51:13.953Z,7.90
2022-08-11T10:54:03.857Z,7.80
2022-08-11T10:57:13.392Z,8.00
2022-08-11T10:59:43.448Z,7.90
2022-08-11T11:02:15.749Z,8.10
2022-08-11T11:05:00.991Z,8.17
2022-08-11T11:07:43.922Z,8.17
2022-08-11T11:10:13.099Z,8.10
2022-08-11T11:13:03.327Z,7.97
2022-08-11T11:15:51.389Z,8.30
2022-08-11T11:18:23.757Z,8.10
2022-08-11T11:20:58.702Z,8.10
2022-08-11T11:23:37.123Z,7.90
2022-08-11T11:26:39.549Z,8.30
2022-08-11T11:29:36.104Z,8.00
2022-08-11T11:32:25.287Z,8.03
2022-08-11T11:35:18.066Z,7.70
2022-08-11T11:38:01.901Z,8.30
2022-08-11T11:40:37.487Z,7.97
2022-08-11T11:43:07.142Z,8.10
2022-08-11T11:45:36.185Z,8.40
2022-08-11T11:48:05.738Z,8.10
2022-08-11T11:50:38.450Z,7.60
2022-08-11T11:53:11.041Z,7.80
2022-08-11T11:55:42.194Z,8.00
2022-08-11T11:58:28.310Z,8.10
2022-08-11T12:01:15.825Z,8.07
2022-08-11T12:03:46.811Z,8.10
2022-08-11T12:06:15.639Z,8.10
2022-08-11T12:08:45.247Z,8.30
2022-08-11T12:11:34.314Z,7.90
2022-08-11T12:14:10.398Z,8.20
2022-08-11T12:16:42.062Z,7.70
2022-08-11T12:19:13.746Z,8.10
2022-08-11T12:22:04.028Z,7.90
2022-08-11T12:24:52.431Z,8.10
2022-08-11T12:27:25.565Z,7.80
2022-08-11T12:29:59.415Z,8.03
2022-08-11T12:32:31.713Z,8.10
2022-08-11T12:35:01.487Z,7.87
2022-08-11T12:37:35.020Z,8.03
2022-08-11T12:40:43.182Z,8.10
2022-08-11T12:43:39.244Z,8.07
2022-08-11T12:46:20.947Z,8.13
2022-08-11T12:49:14.687Z,7.70
2022-08-11T12:52:11.048Z,7.90
2022-08-11T12:54:51.907Z,8.13
2022-08-11T12:57:45.758Z,8.10
2022-08-11T13:00:35.188Z,7.80
2022-08-11T13:03:22.620Z,7.97
2022-08-11T13:05:56.105Z,7.90
2022-08-11T13:08:27.131Z,8.20
2022-08-11T13:11:17.450Z,7.90
2022-08-11T13:13:53.538Z,7.60
2022-08-11T13:16:29.569Z,7.77
2022-08-11T13:19:01.343Z,7.73
2022-08-11T13:21:30.775Z,8.07
2022-08-11T13:24:03.032Z,8.10
2022-08-11T13:26:46.999Z,7.67
2022-08-11T13:29:24.622Z,8.00
2022-08-11T13:31:58.268Z,8.00
2022-08-11T13:34:31.224Z,7.70
2022-08-11T13:37:04.289Z,7.90
2022-08-11T13:39:34.896Z,7.90
2022-08-11T13:42:05.341Z,8.20
2022-08-11T13:44:37.255Z,8.00
2022-08-11T13:47:10.137Z,7.83
2022-08-11T13:49:41.352Z,7.90
2022-08-11T13:52:14.044Z,7.70
2022-08-11T13:54:44.608Z,8.20
2022-08-11T13:58:06.662Z,7.57
2022-08-11T14:00:14.542Z,8.00
2022-08-11T14:02:58.909Z,7.90
2022-08-11T14:05:30.444Z,7.87
2022-08-11T14:08:04.314Z,7.80
2022-08-11T14:10:35.454Z,8.10
2022-08-11T14:13:26.569Z,7.90
2022-08-11T14:16:02.107Z,7.90
2022-08-11T14:18:33.825Z,7.73
2022-08-11T14:21:23.054Z,7.90
2022-08-11T14:23:59.350Z,7.57
2022-08-11T14:26:36.692Z,7.50
2022-08-11T14:29:09.664Z,7.93
2022-08-11T14:31:42.091Z,7.67
2022-08-11T14:34:14.629Z,7.67
2022-08-11T14:36:46.640Z,7.60
2022-08-11T14:39:18.592Z,7.73
2022-08-11T14:42:12.207Z,7.60
2022-08-11T14:45:02.326Z,8.00
2022-08-11T14:47:33.805Z,7.60
2022-08-11T14:50:10.458Z,8.03
2022-08-11T14:52:47.011Z,8.00
2022-08-11T14:55:33.259Z,7.87
2022-08-11T14:58:03.300Z,7.83
2022-08-11T15:00:34.295Z,7.57
2022-08-11T15:03:12.904Z,7.90
2022-08-11T15:05:56.453Z,7.70
2022-08-11T15:08:47.590Z,7.70
2022-08-11T15:11:38.405Z,7.87
2022-08-11T15:14:09.288Z,7.33
2022-08-11T15:16:59.843Z,7.20
2022-08-11T15:19:40.599Z,7.90
2022-08-11T15:22:29.095Z,7.80
2022-08-11T15:24:59.981Z,7.70
2022-08-11T15:27:48.475Z,7.80
2022-08-11T15:30:35.605Z,7.80
2022-08-11T15:33:26.609Z,7.50
2022-08-11T15:36:15.260Z,7.63
2022-08-11T15:38:55.161Z,7.70
2022-08-11T15:41:54.617Z,7.80
2022-08-11T15:45:05.361Z,7.50
2022-08-11T15:47:41.686Z,7.60
2022-08-11T15:50:15.934Z,7.70
2022-08-11T15:52:54.450Z,7.90
2022-08-11T15:55:25.693Z,7.90
2022-08-11T15:58:13.827Z,7.90
2022-08-11T16:01:04.255Z,7.50
2022-08-11T16:04:09.009Z,7.53
2022-08-11T16:06:49.360Z,7.70
2022-08-11T16:09:24.631Z,7.57
2022-08-11T16:12:01.119Z,7.83
2022-08-11T16:14:50.227Z,8.00
2022-08-11T16:17:21.150Z,7.63
2022-08-11T16:19:53.074Z,7.67
2022-08-11T16:22:34.656Z,8.00
2022-08-11T16:27:02.760Z,7.60
2022-08-11T16:28:00.608Z,7.77
2022-08-11T16:30:31.046Z,7.60
2022-08-11T16:33:00.740Z,7.80
2022-08-11T16:36:07.794Z,7.80
2022-08-11T16:38:40.171Z,8.50
2022-08-11T16:41:12.159Z,8.10
2022-08-11T16:44:04.184Z,7.80
2022-08-11T16:46:50.626Z,7.90
2022-08-11T16:49:34.808Z,7.60
2022-08-11T16:52:05.490Z,7.80
2022-08-11T16:54:35.908Z,7.90
2022-08-11T16:57:22.094Z,7.80
2022-08-11T16:59:57.958Z,7.50
2022-08-11T17:02:47.236Z,8.00
2022-08-11T17:05:38.149Z,7.40
2022-08-11T17:08:27.511Z,7.60
2022-08-11T17:11:17.455Z,8.10
2022-08-11T17:13:51.495Z,7.67
2022-08-11T17:16:26.225Z,7.70
2022-08-11T17:19:01.216Z,7.67
2022-08-11T17:21:34.751Z,7.53
2022-08-11T17:24:09.328Z,8.00
2022-08-11T17:26:56.988Z,7.90
2022-08-11T17:29:29.191Z,7.57
2022-08-11T17:32:18.671Z,7.80
2022-08-11T17:35:07.203Z,8.10
2022-08-11T17:37:38.125Z,7.80
2022-08-11T17:40:12.406Z,7.90
2022-08-11T17:43:00.485Z,7.57
2022-08-11T17:45:47.566Z,7.80
2022-08-11T17:48:27.319Z,7.90
2022-08-11T17:50:59.253Z,7.60
2022-08-11T17:54:02.236Z,7.80
2022-08-11T17:56:55.239Z,7.60
2022-08-11T17:59:43.728Z,7.80
2022-08-11T18:02:38.416Z,7.97
2022-08-11T18:05:13.262Z,7.50
2022-08-11T18:08:01.097Z,7.67
2022-08-11T18:10:50.588Z,7.40
2022-08-11T18:13:40.756Z,8.00
2022-08-11T18:16:27.248Z,7.47
2022-08-11T18:19:13.111Z,7.83
2022-08-11T18:22:15.708Z,8.00
2022-08-11T18:25:07.512Z,8.00
2022-08-11T18:27:57.479Z,8.00
2022-08-11T18:30:44.454Z,8.07
2022-08-11T18:34:03.816Z,8.00
2022-08-11T18:36:46.409Z,7.80
2022-08-11T18:39:34.096Z,7.90
2022-08-11T18:42:29.120Z,7.70
2022-08-11T18:45:22.245Z,7.70
2022-08-11T18:48:11.575Z,7.70
2022-08-11T18:51:29.866Z,7.90
2022-08-11T18:54:11.803Z,7.97
2022-08-11T18:57:00.936Z,7.80
2022-08-11T18:59:51.400Z,7.70
2022-08-11T19:02:49.494Z,8.10
2022-08-11T19:06:37.189Z,7.80
2022-08-11T19:09:11.342Z,8.33
2022-08-11T19:12:00.031Z,7.90
2022-08-11T19:14:48.677Z,8.00
2022-08-11T19:17:45.125Z,7.90
2022-08-11T19:20:36.830Z,7.70
2022-08-11T19:23:25.900Z,7.83
2022-08-11T19:26:13.053Z,8.07
2022-08-11T19:29:03.292Z,8.00
2022-08-11T19:31:50.366Z,8.00
2022-08-11T19:34:41.170Z,8.00
2022-08-11T19:37:29.060Z,8.17
2022-08-11T19:40:20.936Z,8.20
2022-08-11T19:43:18.697Z,7.80
2022-08-11T19:46:19.141Z,7.80
2022-08-11T19:49:09.549Z,8.10
2022-08-11T19:51:56.760Z,8.30
2022-08-11T19:54:45.596Z,8.10
2022-08-11T19:57:38.755Z,7.93
2022-08-11T20:00:31.498Z,8.10
2022-08-11T20:03:30.603Z,8.30
2022-08-11T20:06:20.634Z,8.10
2022-08-11T20:09:08.644Z,8.00
2022-08-11T20:12:05.028Z,8.00
2022-08-11T20:14:54.131Z,8.00
2022-08-11T20:17:46.006Z,8.30
2022-08-11T20:20:35.557Z,7.97
2022-08-11T20:23:25.616Z,8.33
2022-08-11T20:26:30.220Z,8.07
2022-08-11T20:29:18.790Z,8.13
2022-08-11T20:32:06.659Z,8.40
2022-08-11T20:34:58.331Z,8.00
2022-08-11T20:37:51.027Z,8.20
2022-08-11T20:40:40.604Z,8.27
2022-08-11T20:44:06.147Z,8.20
2022-08-11T20:46:38.852Z,8.00
2022-08-11T20:49:40.911Z,8.00
2022-08-11T20:52:34.705Z,8.20
2022-08-11T20:55:26.118Z,8.10
2022-08-11T20:58:47.974Z,8.00
2022-08-11T21:01:41.452Z,8.27
2022-08-11T21:04:27.989Z,8.10
2022-08-11T21:10:24.651Z,8.50
2022-08-11T21:13:25.545Z,8.20
2022-08-11T21:16:26.354Z,8.30
2022-08-11T21:19:55.162Z,8.37
2022-08-11T21:22:28.389Z,8.10
2022-08-11T21:25:16.367Z,8.40
2022-08-11T21:28:04.925Z,8.30
2022-08-11T21:30:57.888Z,8.27
2022-08-11T21:33:46.360Z,8.23
2022-08-11T21:36:34.043Z,8.13
2022-08-11T21:39:22.849Z,8.33
2022-08-11T21:42:13.299Z,8.00
2022-08-11T21:45:02.016Z,7.90
2022-08-11T21:47:49.510Z,8.30
2022-08-11T21:50:47.372Z,8.40
2022-08-11T21:53:34.327Z,8.03
2022-08-11T21:56:20.695Z,8.10
2022-08-11T21:59:08.278Z,8.13
2022-08-11T22:01:56.051Z,8.10
2022-08-11T22:04:43.739Z,8.63
2022-08-11T22:07:30.868Z,8.53
2022-08-11T22:10:40.394Z,8.40
2022-08-11T22:13:26.137Z,8.37
2022-08-11T22:16:12.711Z,8.40
2022-08-11T22:19:01.195Z,8.20
2022-08-11T22:22:02.711Z,8.10
2022-08-11T22:24:52.761Z,8.50
2022-08-11T22:27:39.762Z,8.30
2022-08-11T22:30:30.843Z,8.00
2022-08-11T22:33:24.373Z,8.30
2022-08-11T22:36:15.901Z,8.27
2022-08-11T22:39:04.360Z,8.50
2022-08-11T22:41:50.706Z,8.50
2022-08-11T22:44:36.715Z,8.40
2022-08-11T22:47:23.810Z,8.43
2022-08-11T22:50:17.399Z,8.30
2022-08-11T22:53:07.302Z,8.40
2022-08-11T22:55:53.875Z,8.40
2022-08-11T22:58:40.857Z,8.30
2022-08-11T23:01:28.119Z,8.20
2022-08-11T23:04:15.194Z,8.50
2022-08-11T23:07:01.370Z,8.40
2022-08-11T23:09:49.568Z,8.40
2022-08-11T23:12:56.560Z,8.20
2022-08-11T23:15:43.614Z,8.30
2022-08-11T23:18:31.821Z,8.50
2022-08-11T23:21:18.163Z,8.33
2022-08-11T23:24:04.096Z,8.40
2022-08-11T23:26:51.303Z,8.40
2022-08-11T23:29:37.986Z,8.63
2022-08-11T23:32:25.664Z,8.40
2022-08-11T23:35:38.444Z,8.50
2022-08-11T23:38:21.572Z,8.30
2022-08-11T23:41:07.636Z,8.60
2022-08-11T23:43:55.597Z,8.40
2022-08-11T23:46:43.193Z,8.40
2022-08-11T23:49:29.662Z,8.20
2022-08-11T23:52:16.565Z,8.43
2022-08-11T23:55:04.505Z,8.60
2022-08-11T23:57:50.492Z,8.60
